Data for 08/07/2015

Time Sea-Level Adjusted Pressure Absolute Pressure Temperature Relative Humidity Dew Point   
(mb) (inHg) (mb) (inHg) (C) (F) (%) (C) (F)
00:05 1019 30.09 848 25.04 12.2 54 56 3.8 38.9
00:10 1019 30.09 848 25.04 12.3 54.2 54 3.3 37.9
00:15 1019 30.09 848 25.04 12.3 54.1 55 3.5 38.3
00:20 1019 30.09 848 25.04 12.2 53.9 56 3.7 38.7
00:25 1019 30.09 848 25.04 12 53.5 57 3.8 38.8
00:30 1019 30.09 848 25.04 11.8 53.3 55 3.1 37.6
00:35 1019 30.09 848 25.04 11.9 53.5 54 3 37.5
00:40 1019 30.09 848 25.04 12 53.6 52 2.6 36.7
00:45 1019 30.09 848 25.04 12.1 53.7 53 2.8 37.1
00:50 1019 30.09 848 25.04 11.9 53.3 55 3.2 37.8
00:55 1019 30.09 848 25.04 11.6 53 56 3.2 37.8
01:00 1019 30.09 848 25.04 11.5 52.7 56 3 37.3
01:05 1019 30.09 848 25.04 11.5 52.7 54 2.7 36.8
01:10 1019 30.09 848 25.04 11.5 52.8 54 2.5 36.6
01:15 1019 30.09 848 25.04 11.6 53 52 2.2 35.9
01:20 1019 30.09 848 25.04 11.9 53.5 50 2 35.6
01:25 1019 30.09 848 25.04 12.1 53.7 51 2.2 36
01:30 1019 30.09 848 25.04 11.8 53.2 52 2.4 36.4
01:35 1019 30.09 848 25.04 11.6 52.9 52 2.2 36
01:40 1019 30.09 848 25.04 11.3 52.3 55 2.7 36.8
01:45 1019 30.09 848 25.04 10.9 51.6 57 2.9 37.1
01:50 1019 30.09 848 25.04 10.6 51 59 2.9 37.3
01:55 1019 30.09 848 25.04 10.2 50.4 60 2.9 37.3
02:00 1019 30.09 848 25.04 10 50 60 2.7 36.9
02:05 1019 30.09 848 25.04 9.9 49.9 61 2.7 36.8
02:10 1019 30.09 848 25.04 10 49.9 60 2.6 36.7
02:15 1019 30.09 848 25.04 10.1 50.2 59 2.5 36.5
02:20 1019 30.09 848 25.04 10.1 50.1 59 2.6 36.6
02:25 1019 30.09 848 25.04 10.1 50.2 57 2.1 35.8
02:30 1019 30.09 848 25.04 10.2 50.4 56 1.9 35.5
02:35 1019 30.09 848 25.04 10.4 50.7 56 2.1 35.8
02:40 1019 30.09 849 25.07 10.3 50.6 57 2.1 35.8
02:45 1019 30.09 848 25.04 10.3 50.5 57 2.1 35.8
02:50 1019 30.09 849 25.07 10.3 50.6 56 2 35.7
02:55 1019 30.09 849 25.07 10.3 50.6 56 2.1 35.7
03:00 1019 30.09 849 25.07 10.2 50.4 56 1.9 35.5
03:05 1019 30.09 849 25.07 10.1 50.1 56 1.8 35.3
03:10 1019 30.09 849 25.07 10.1 50.2 57 1.9 35.5
03:15 1020 30.12 849 25.07 10.1 50.2 55 1.6 34.9
03:20 1020 30.12 849 25.07 10.1 50.2 56 1.7 35.1
03:25 1020 30.12 849 25.07 10 50.1 56 1.7 35
03:30 1020 30.12 849 25.07 10.1 50.1 56 1.7 35
03:35 1020 30.12 849 25.07 10.1 50.3 56 1.8 35.3
03:40 1020 30.12 849 25.07 10.1 50.1 57 1.9 35.5
03:45 1020 30.12 849 25.07 10 49.9 57 1.8 35.2
03:50 1020 30.12 849 25.07 9.9 49.8 56 1.6 34.9
03:55 1020 30.12 849 25.07 9.8 49.6 57 1.7 35.1
04:00 1020 30.12 849 25.07 9.7 49.4 56 1.4 34.5
04:05 1020 30.12 849 25.07 9.9 49.8 55 1.4 34.6
04:10 1020 30.12 849 25.07 9.9 49.8 55 1.4 34.4
04:15 1019 30.09 849 25.07 9.9 49.7 55 1.4 34.5
04:20 1019 30.09 849 25.07 9.9 49.8 54 1.1 34.1
04:25 1019 30.09 849 25.07 9.8 49.7 56 1.5 34.7
04:30 1019 30.09 849 25.07 9.6 49.2 57 1.4 34.6
04:35 1019 30.09 849 25.07 9.6 49.3 57 1.5 34.7
04:40 1019 30.09 849 25.07 9.7 49.5 56 1.4 34.6
04:45 1019 30.09 848 25.04 9.7 49.4 56 1.4 34.5
04:50 1019 30.09 848 25.04 9.7 49.5 55 1.1 33.9
04:55 1019 30.09 849 25.07 9.9 49.8 56 1.5 34.7
05:00 1019 30.09 849 25.07 9.8 49.7 55 1.3 34.3
05:05 1019 30.09 849 25.07 9.9 49.8 56 1.6 34.9
05:10 1019 30.09 849 25.07 9.4 48.8 58 1.5 34.7
05:15 1019 30.09 849 25.07 9.3 48.8 57 1.2 34.2
05:20 1019 30.09 849 25.07 9.3 48.7 57 1.3 34.4
05:25 1019 30.09 849 25.07 9.2 48.6 58 1.3 34.4
05:30 1020 30.12 849 25.07 9.3 48.7 56 1 33.8
05:35 1020 30.12 849 25.07 9.7 49.4 55 1 33.8
05:40 1020 30.12 849 25.07 10 49.9 54 1 33.9
05:45 1020 30.12 849 25.07 10.1 50.1 55 1.4 34.6
05:50 1020 30.12 849 25.07 9.9 49.8 57 1.7 35.1
05:55 1020 30.12 849 25.07 9.6 49.2 59 1.9 35.4
06:00 1020 30.12 849 25.07 9.5 49.1 57 1.4 34.6
06:05 1020 30.12 849 25.07 9.5 49.1 58 1.8 35.2
06:10 1020 30.12 849 25.07 9.3 48.8 59 1.8 35.2
06:15 1020 30.12 849 25.07 9.4 48.9 58 1.7 35
06:20 1020 30.12 849 25.07 9.6 49.3 57 1.6 34.9
06:25 1020 30.12 849 25.07 9.9 49.8 56 1.6 34.8
06:30 1020 30.12 849 25.07 10.3 50.6 54 1.5 34.7
06:35 1020 30.12 849 25.07 10.7 51.3 53 1.7 35.1
06:40 1020 30.12 849 25.07 10.9 51.7 53 1.8 35.2
06:45 1020 30.12 849 25.07 11.6 52.8 51 1.8 35.2
06:50 1020 30.12 849 25.07 12.3 54.1 47 1.3 34.3
06:55 1020 30.12 849 25.07 12.7 54.8 49 2.3 36.1
07:00 1020 30.12 849 25.07 13 55.5 49 2.8 37
07:05 1020 30.12 849 25.07 13.2 55.7 47 2.2 36
07:10 1020 30.12 849 25.07 13.1 55.5 46 1.9 35.4
07:15 1020 30.12 849 25.07 13 55.3 45 1.4 34.6
07:20 1020 30.12 849 25.07 13.1 55.5 48 2.4 36.3
07:25 1020 30.12 849 25.07 13.1 55.6 47 2.2 36
07:30 1020 30.12 849 25.07 13.6 56.4 46 2.1 35.8
07:35 1020 30.12 849 25.07 13.5 56.2 46 2.2 36
07:40 1020 30.12 849 25.07 13.1 55.6 48 2.3 36.2
07:45 1020 30.12 849 25.07 13.7 56.7 47 2.8 37.1
07:50 1020 30.12 849 25.07 14.2 57.5 46 2.7 36.9
07:55 1020 30.12 849 25.07 14.3 57.8 44 2.3 36.1
08:00 1020 30.12 849 25.07 14.5 58 42 1.8 35.3
08:05 1020 30.12 849 25.07 14.6 58.3 42 1.9 35.5
08:10 1020 30.12 849 25.07 14.9 58.9 40 1.5 34.7
08:15 1020 30.12 849 25.07 15.5 60 40 2.2 35.9
08:20 1020 30.12 849 25.07 15.6 60.1 39 1.9 35.4
08:25 1020 30.12 849 25.07 15.9 60.7 39 2.2 35.9
08:30 1020 30.12 849 25.07 16.2 61.1 40 2.7 36.8
08:35 1020 30.12 849 25.07 16.4 61.4 39 2.5 36.5
08:40 1020 30.12 849 25.07 16.4 61.6 40 2.9 37.2
08:45 1019 30.09 849 25.07 16.9 62.3 37 2.3 36.2
08:50 1019 30.09 849 25.07 17.6 63.6 37 2.7 36.8
08:55 1019 30.09 849 25.07 17.5 63.4 37 2.9 37.2
09:00 1019 30.09 849 25.07 17 62.6 37 2.2 35.9
09:05 1019 30.09 849 25.07 17.4 63.3 37 2.6 36.6
09:10 1019 30.09 848 25.04 18 64.3 31 0.9 33.5
09:15 1019 30.09 848 25.04 18.6 65.4 31 1.5 34.6
09:20 1019 30.09 848 25.04 18.8 65.9 32 1.7 35.1
09:25 1019 30.09 848 25.04 18.9 66 32 1.8 35.3
09:30 1019 30.09 848 25.04 18.9 65.9 32 1.9 35.4
09:35 1019 30.09 848 25.04 18.8 65.9 32 1.7 35.1
09:40 1019 30.09 848 25.04 19.1 66.3 32 2.1 35.7
09:45 1019 30.09 848 25.04 19.9 67.7 31 2.5 36.4
09:50 1019 30.09 848 25.04 20 67.9 31 2.4 36.3
09:55 1019 30.09 848 25.04 19.5 67.1 33 2.9 37.2
10:00 1019 30.09 848 25.04 20.5 68.9 29 2 35.5
10:05 1019 30.09 848 25.04 20.8 69.4 29 2.1 35.7
10:10 1019 30.09 848 25.04 20.8 69.4 29 2.2 36
10:15 1019 30.09 848 25.04 20.9 69.7 27 1.4 34.6
10:20 1019 30.09 848 25.04 20.7 69.2 26 0.7 33.3
10:25 1019 30.09 848 25.04 21 69.9 26 0.8 33.5
10:30 1019 30.09 848 25.04 21.1 69.9 28 2.1 35.7
10:35 1019 30.09 848 25.04 21.2 70.1 24 -0 31.9
10:40 1019 30.09 848 25.04 21.2 70.2 25 0.9 33.6
10:45 1019 30.09 848 25.04 20.7 69.3 27 1.4 34.5
10:50 1019 30.09 848 25.04 21.4 70.4 25 0.8 33.5
10:55 1019 30.09 848 25.04 21.1 69.9 28 2.1 35.8
11:00 1019 30.09 848 25.04 20.7 69.3 24 -0.2 31.6
11:05 1019 30.09 848 25.04 21.1 69.9 26 1 33.9
11:10 1018 30.06 848 25.04 21.9 71.4 23 0.3 32.5
11:15 1018 30.06 848 25.04 22.6 72.7 23 0.6 33.1
11:20 1018 30.06 848 25.04 22.3 72.1 25 1.4 34.6
11:25 1018 30.06 848 25.04 22.3 72.1 25 1.3 34.4
11:30 1018 30.06 847 25.01 22.5 72.4 24 0.9 33.7
11:35 1018 30.06 847 25.01 22.9 73.2 23 0.7 33.2
11:40 1018 30.06 847 25.01 22.9 73.2 24 1.7 35.1
11:45 1018 30.06 847 25.01 22.7 72.9 25 1.6 34.9
11:50 1018 30.06 847 25.01 23 73.3 24 1.3 34.3
11:55 1018 30.06 847 25.01 21.8 71.3 25 1 33.7
12:00 1018 30.06 847 25.01 22.7 72.9 22 0.4 32.7
12:05 1018 30.06 847 25.01 23.2 73.7 22 0.3 32.6
12:10 1018 30.06 847 25.01 22.5 72.5 23 0.8 33.4
12:15 1018 30.06 847 25.01 23.2 73.8 21 0.2 32.3
12:20 1018 30.06 847 25.01 23.9 75 20 -0.2 31.7
12:25 1018 30.06 847 25.01 24 75.1 21 0.3 32.6
12:30 1018 30.06 847 25.01 23.8 74.8 20 -0.1 31.7
12:35 1018 30.06 847 25.01 23.7 74.6 20 -0.7 30.7
12:40 1018 30.06 847 25.01 23.8 74.9 20 -0.1 31.8
12:45 1017 30.03 847 25.01 24.2 75.5 19 -0.6 30.8
12:50 1017 30.03 847 25.01 24.2 75.6 19 -0.3 31.4
12:55 1017 30.03 847 25.01 24.4 76 20 0.1 32.1
13:00 1017 30.03 847 25.01 23.4 74.1 19 -1.5 29.3
13:05 1017 30.03 847 25.01 22.7 72.9 19 -1.8 28.8
13:10 1017 30.03 847 25.01 22.8 73.1 19 -1.9 28.6
13:15 1017 30.03 847 25.01 23 73.4 21 -0.4 31.2
13:20 1017 30.03 846 24.98 23.7 74.6 18 -1.5 29.3
13:25 1017 30.03 846 24.98 24.3 75.8 19 -0.6 31
13:30 1017 30.03 846 24.98 24.6 76.3 18 -0.8 30.5
13:35 1017 30.03 846 24.98 24.5 76.1 18 -1.2 29.8
13:40 1017 30.03 846 24.98 23.2 73.8 19 -1.1 29.9
13:45 1017 30.03 846 24.98 23.3 74 20 -0.6 30.9
13:50 1017 30.03 846 24.98 23.7 74.6 19 -0.9 30.3
13:55 1017 30.03 846 24.98 24.4 75.9 19 -0.6 31
14:00 1017 30.03 846 24.98 24.6 76.3 19 0 32.1
14:05 1017 30.03 846 24.98 24 75.3 19 -0.8 30.6
14:10 1017 30.03 846 24.98 24.5 76.2 18 -1.3 29.6
14:15 1017 30.03 846 24.98 25.1 77.1 17 -1.1 30
14:20 1017 30.03 846 24.98 25.2 77.3 19 0 32.1
14:25 1017 30.03 846 24.98 24.6 76.2 19 -0.6 30.9
14:30 1017 30.03 846 24.98 24.3 75.8 20 0.4 32.8
14:35 1017 30.03 846 24.98 23.7 74.6 20 -0.5 31.2
14:40 1017 30.03 846 24.98 24.1 75.3 19 -0.6 30.9
14:45 1017 30.03 846 24.98 24.5 76.1 19 -0.4 31.4
14:50 1017 30.03 846 24.98 25 77.1 18 -0.5 31.2
14:55 1017 30.03 846 24.98 25.5 77.9 18 -0.5 31.1
15:00 1016 30 846 24.98 25.1 77.3 18 -0.5 31.2
15:05 1016 30 846 24.98 24.9 76.7 18 -0.9 30.4
15:10 1016 30 845 24.95 25 77 17 -1.3 29.7
15:15 1016 30 845 24.95 24.7 76.5 18 -0.9 30.4
15:20 1016 30 845 24.95 24.9 76.9 17 -1.9 28.5
15:25 1016 30 845 24.95 24.6 76.3 18 -1 30.2
15:30 1016 30 845 24.95 24.9 76.9 19 0.2 32.3
15:35 1016 30 845 24.95 25.6 78.1 17 -0.7 30.8
15:40 1016 30 845 24.95 25.9 78.6 16 -2 28.4
15:45 1016 30 845 24.95 25.9 78.6 16 -1.2 29.9
15:50 1016 30 845 24.95 24.8 76.6 17 -1.5 29.2
15:55 1016 30 845 24.95 25.4 77.7 15 -2.8 26.9
16:00 1016 30 845 24.95 25.7 78.3 16 -2.2 28.1
16:05 1016 30 845 24.95 25.1 77.2 16 -2.5 27.5
16:10 1016 30 845 24.95 25.4 77.7 15 -2.8 26.9
16:15 1016 30 845 24.95 25.1 77.1 17 -1.3 29.6
16:20 1016 30 845 24.95 24.7 76.4 17 -1.9 28.6
16:25 1016 30 845 24.95 24.6 76.4 17 -2.1 28.1
16:30 1016 30 845 24.95 25.4 77.8 15 -2.7 27.2
16:35 1016 30 845 24.95 26.1 79 15 -1.9 28.5
16:40 1016 30 845 24.95 26.3 79.3 15 -2.6 27.4
16:45 1016 30 845 24.95 26 78.8 17 -0.9 30.4
16:50 1016 30 845 24.95 26 78.8 15 -2 28.4
16:55 1016 30 845 24.95 26.4 79.5 15 -2.1 28.1
17:00 1016 30 845 24.95 26.4 79.4 14 -2.6 27.3
17:05 1016 30 845 24.95 25.2 77.3 17 -1.4 29.4
17:10 1016 30 845 24.95 25.3 77.5 15 -3.3 26.1
17:15 1016 30 845 24.95 25.6 78.2 15 -2.9 26.8
17:20 1016 30 845 24.95 25.9 78.6 16 -2 28.4
17:25 1015 29.97 845 24.95 25.8 78.4 14 -3.2 26.2
17:30 1015 29.97 845 24.95 25.8 78.4 15 -2.9 26.7
17:35 1015 29.97 845 24.95 24.7 76.4 15 -3.5 25.8
17:40 1015 29.97 845 24.95 24.9 76.9 15 -3.7 25.4
17:45 1015 29.97 845 24.95 24.9 76.7 14 -3.8 25.1
17:50 1015 29.97 845 24.95 25.3 77.5 15 -2.9 26.9
17:55 1015 29.97 845 24.95 25 77.1 15 -2.8 27
18:00 1015 29.97 845 24.95 24.4 75.9 15 -3.6 25.4
18:05 1015 29.97 844 24.92 24.3 75.7 16 -2.9 26.7
18:10 1015 29.97 844 24.92 24.3 75.7 18 -1.4 29.4
18:15 1015 29.97 844 24.92 24.3 75.7 15 -3.5 25.7
18:20 1015 29.97 844 24.92 24.5 76 14 -4.2 24.4
18:25 1015 29.97 844 24.92 24.5 76.1 16 -2.9 26.9
18:30 1015 29.97 844 24.92 24.2 75.6 16 -3.3 26.1
18:35 1015 29.97 844 24.92 23.9 75 17 -2.8 27
18:40 1015 29.97 844 24.92 23.8 74.8 16 -3.5 25.7
18:45 1015 29.97 844 24.92 23.7 74.6 15 -4.4 24.2
18:50 1015 29.97 844 24.92 23.6 74.5 17 -2.9 26.8
18:55 1015 29.97 844 24.92 23.7 74.6 17 -2.5 27.6
19:00 1015 29.97 844 24.92 23.6 74.5 19 -1.4 29.5
19:05 1015 29.97 844 24.92 23.4 74.1 24 1.6 34.9
19:10 1015 29.97 844 24.92 22.8 73.1 23 0.5 33
19:15 1015 29.97 844 24.92 22.8 73.1 21 -0.3 31.5
19:20 1015 29.97 844 24.92 22.9 73.2 25 1.9 35.5
19:25 1015 29.97 844 24.92 22.7 72.8 24 1.5 34.6
19:30 1015 29.97 844 24.92 22.4 72.4 29 3.7 38.6
19:35 1015 29.97 844 24.92 21.5 70.7 32 4.3 39.8
19:40 1015 29.97 844 24.92 20.8 69.5 33 4.3 39.7
19:45 1015 29.97 845 24.95 20.4 68.7 34 4 39.2
19:50 1015 29.97 845 24.95 19.8 67.6 34 3.8 38.9
19:55 1015 29.97 845 24.95 19.4 66.8 38 4.9 40.9
20:00 1015 29.97 845 24.95 18.9 66 36 3.7 38.7
20:05 1015 29.97 845 24.95 18.5 65.3 39 4.6 40.2
20:10 1016 30 845 24.95 17.9 64.2 46 6.2 43.2
20:15 1016 30 845 24.95 17.7 63.9 38 3.2 37.7
20:20 1016 30 845 24.95 18 64.3 36 2.9 37.3
20:25 1016 30 845 24.95 17.5 63.5 37 2.7 36.8
20:30 1016 30 845 24.95 17 62.6 37 2.3 36.1
20:35 1016 30 845 24.95 16.7 62.1 37 2.3 36.1
20:40 1016 30 845 24.95 16.5 61.8 39 2.6 36.7
20:45 1016 30 845 24.95 16.3 61.4 39 2.3 36.2
20:50 1016 30 845 24.95 16.2 61.1 40 2.7 36.8
20:55 1016 30 845 24.95 15.9 60.7 38 1.7 35.1
21:00 1016 30 845 24.95 15.9 60.7 39 2.1 35.7
21:05 1016 30 845 24.95 15.9 60.6 38 1.7 35.1
21:10 1016 30 845 24.95 16.2 61.2 37 1.6 34.9
21:15 1016 30 845 24.95 16.3 61.3 35 0.8 33.4
21:20 1016 30 845 24.95 16.3 61.4 35 1.1 34
21:25 1016 30 845 24.95 16.1 61 36 1.2 34.2
21:30 1016 30 845 24.95 15.9 60.7 36 1.1 34
21:35 1016 30 845 24.95 16 60.7 35 0.6 33.1
21:40 1016 30 845 24.95 16.1 61 34 0.4 32.7
21:45 1016 30 845 24.95 16.1 61 35 0.9 33.6
21:50 1016 30 845 24.95 15.9 60.6 34 0.1 32.2
21:55 1016 30 845 24.95 16 60.8 32 -0.7 30.8
22:00 1016 30 845 24.95 16.4 61.5 31 -0.7 30.8
22:05 1016 30 845 24.95 16.4 61.5 31 -0.7 30.8
22:10 1016 30 845 24.95 16.3 61.4 31 -0.6 30.9
22:15 1016 30 845 24.95 16.3 61.4 30 -1.1 30.1
22:20 1016 30 845 24.95 16.8 62.2 29 -1.1 29.9
22:25 1016 30 845 24.95 16.8 62.2 29 -1.1 30.1
22:30 1016 30 845 24.95 17.1 62.7 28 -1.5 29.4
22:35 1016 30 845 24.95 17.6 63.6 26 -2.1 28.2
22:40 1016 30 845 24.95 18.2 64.7 26 -1.8 28.8
22:45 1016 30 845 24.95 18.3 64.9 26 -1.5 29.4
22:50 1016 30 845 24.95 18.3 65 27 -1 30.1
22:55 1016 30 845 24.95 18.3 64.9 28 -0.6 30.9
23:00 1016 30 845 24.95 18.2 64.8 29 -0.1 31.7
23:05 1016 30 845 24.95 18.2 64.7 29 0.2 32.3
23:10 1016 30 845 24.95 18 64.4 30 0.4 32.7
23:15 1016 30 845 24.95 18.1 64.5 31 0.6 33.2
23:20 1016 30 845 24.95 18 64.4 31 0.9 33.6
23:25 1016 30 845 24.95 17.9 64.1 32 1 33.8
23:30 1016 30 845 24.95 17.8 64 32 0.9 33.7
23:35 1016 30 845 24.95 17.7 63.9 32 1.1 34
23:40 1016 30 845 24.95 17.7 63.9 32 1 33.9
23:45 1016 30 845 24.95 17.7 63.9 33 1.2 34.1
23:50 1016 30 845 24.95 17.6 63.7 33 1.3 34.3
23:55 1016 30 845 24.95 17.5 63.5 33 1.2 34.1
24:00 1016 30 845 24.95 17.5 63.5 33 1.1 34